sensor_id;sensor_type;location;lat;lon;timestamp;temperature;humidity
25918;DHT22;13899;51.174;4.456;2022-12-15T00:01:47;-1.00;99.90
25918;DHT22;13899;51.174;4.456;2022-12-15T00:04:31;-1.00;99.90
25918;DHT22;13899;51.174;4.456;2022-12-15T00:07:16;-0.90;99.90
25918;DHT22;13899;51.174;4.456;2022-12-15T00:10:00;-0.80;99.90
25918;DHT22;13899;51.174;4.456;2022-12-15T00:12:44;-0.90;99.90
25918;DHT22;13899;51.174;4.456;2022-12-15T00:15:28;-1.20;99.90
25918;DHT22;13899;51.174;4.456;2022-12-15T00:18:12;-1.20;99.90
25918;DHT22;13899;51.174;4.456;2022-12-15T00:20:57;-1.10;99.90
25918;DHT22;13899;51.174;4.456;2022-12-15T00:23:42;-1.30;99.90
25918;DHT22;13899;51.174;4.456;2022-12-15T00:26:26;-1.20;99.90
25918;DHT22;13899;51.174;4.456;2022-12-15T00:29:11;-1.20;99.90
25918;DHT22;13899;51.174;4.456;2022-12-15T00:31:55;-1.00;99.90
25918;DHT22;13899;51.174;4.456;2022-12-15T00:34:39;-1.30;99.90
25918;DHT22;13899;51.174;4.456;2022-12-15T00:37:23;-1.10;99.90
25918;DHT22;13899;51.174;4.456;2022-12-15T00:40:07;-1.10;99.90
25918;DHT22;13899;51.174;4.456;2022-12-15T00:42:33;-1.20;99.90
25918;DHT22;13899;51.174;4.456;2022-12-15T00:44:59;-1.10;99.90
25918;DHT22;13899;51.174;4.456;2022-12-15T00:47:25;-1.00;99.90
25918;DHT22;13899;51.174;4.456;2022-12-15T00:49:50;-1.10;99.90
25918;DHT22;13899;51.174;4.456;2022-12-15T00:52:35;-1.10;99.90
25918;DHT22;13899;51.174;4.456;2022-12-15T00:55:19;-1.10;99.90
25918;DHT22;13899;51.174;4.456;2022-12-15T00:58:03;-1.20;99.90
25918;DHT22;13899;51.174;4.456;2022-12-15T01:00:48;-1.20;99.90
25918;DHT22;13899;51.174;4.456;2022-12-15T01:03:32;-1.30;99.90
25918;DHT22;13899;51.174;4.456;2022-12-15T01:06:18;-1.40;99.90
25918;DHT22;13899;51.174;4.456;2022-12-15T01:09:03;-1.90;99.90
25918;DHT22;13899;51.174;4.456;2022-12-15T01:11:49;-1.90;99.90
25918;DHT22;13899;51.174;4.456;2022-12-15T01:14:33;-2.10;99.90
25918;DHT22;13899;51.174;4.456;2022-12-15T01:17:17;-2.10;99.90
25918;DHT22;13899;51.174;4.456;2022-12-15T01:20:02;-2.20;99.90
25918;DHT22;13899;51.174;4.456;2022-12-15T01:22:47;-2.20;99.90
25918;DHT22;13899;51.174;4.456;2022-12-15T01:25:14;-2.40;99.90
25918;DHT22;13899;51.174;4.456;2022-12-15T01:27:41;-2.90;99.90
25918;DHT22;13899;51.174;4.456;2022-12-15T01:30:07;-3.10;99.90
25918;DHT22;13899;51.174;4.456;2022-12-15T01:32:33;-3.20;99.90
25918;DHT22;13899;51.174;4.456;2022-12-15T01:34:59;-3.30;99.90
25918;DHT22;13899;51.174;4.456;2022-12-15T01:37:24;-3.40;99.90
25918;DHT22;13899;51.174;4.456;2022-12-15T01:39:50;-3.50;99.90
25918;DHT22;13899;51.174;4.456;2022-12-15T01:42:34;-3.50;99.90
25918;DHT22;13899;51.174;4.456;2022-12-15T01:48:06;-3.50;99.90
25918;DHT22;13899;51.174;4.456;2022-12-15T01:50:41;-3.60;99.90
25918;DHT22;13899;51.174;4.456;2022-12-15T01:53:09;-3.60;99.90
25918;DHT22;13899;51.174;4.456;2022-12-15T01:55:38;-3.60;99.90
25918;DHT22;13899;51.174;4.456;2022-12-15T01:58:07;-3.50;99.90
25918;DHT22;13899;51.174;4.456;2022-12-15T02:00:33;-3.40;99.90
25918;DHT22;13899;51.174;4.456;2022-12-15T02:03:00;-3.40;99.90
25918;DHT22;13899;51.174;4.456;2022-12-15T02:05:27;-3.50;99.90
25918;DHT22;13899;51.174;4.456;2022-12-15T02:07:53;-3.50;99.90
25918;DHT22;13899;51.174;4.456;2022-12-15T02:10:19;-3.50;99.90
25918;DHT22;13899;51.174;4.456;2022-12-15T02:13:08;-3.50;99.90
25918;DHT22;13899;51.174;4.456;2022-12-15T02:15:47;-3.60;99.90
25918;DHT22;13899;51.174;4.456;2022-12-15T02:20:59;-3.50;99.90
25918;DHT22;13899;51.174;4.456;2022-12-15T02:29:16;-3.50;99.90
25918;DHT22;13899;51.174;4.456;2022-12-15T02:36:57;-2.80;99.90
25918;DHT22;13899;51.174;4.456;2022-12-15T02:39:24;-2.80;99.90
25918;DHT22;13899;51.174;4.456;2022-12-15T02:41:50;-2.70;99.90
25918;DHT22;13899;51.174;4.456;2022-12-15T02:44:23;-2.60;99.90
25918;DHT22;13899;51.174;4.456;2022-12-15T02:52:50;-1.90;99.90
25918;DHT22;13899;51.174;4.456;2022-12-15T03:00:41;-2.50;99.90
25918;DHT22;13899;51.174;4.456;2022-12-15T03:03:08;-2.50;99.90
25918;DHT22;13899;51.174;4.456;2022-12-15T03:05:34;-2.80;99.90
25918;DHT22;13899;51.174;4.456;2022-12-15T03:08:00;-2.90;99.90
25918;DHT22;13899;51.174;4.456;2022-12-15T03:10:26;-2.70;99.90
25918;DHT22;13899;51.174;4.456;2022-12-15T03:12:52;-2.40;99.90
25918;DHT22;13899;51.174;4.456;2022-12-15T03:15:19;-2.20;99.90
25918;DHT22;13899;51.174;4.456;2022-12-15T03:17:45;-2.00;99.90
25918;DHT22;13899;51.174;4.456;2022-12-15T03:20:11;-1.70;99.90
25918;DHT22;13899;51.174;4.456;2022-12-15T03:22:36;-2.10;99.90
25918;DHT22;13899;51.174;4.456;2022-12-15T03:25:03;-2.50;99.90
25918;DHT22;13899;51.174;4.456;2022-12-15T03:27:29;-2.20;99.90
25918;DHT22;13899;51.174;4.456;2022-12-15T03:29:54;-2.00;99.90
25918;DHT22;13899;51.174;4.456;2022-12-15T03:32:20;-1.80;99.90
25918;DHT22;13899;51.174;4.456;2022-12-15T03:34:46;-1.80;99.90
25918;DHT22;13899;51.174;4.456;2022-12-15T03:37:11;-2.00;99.90
25918;DHT22;13899;51.174;4.456;2022-12-15T03:39:37;-2.40;99.90
25918;DHT22;13899;51.174;4.456;2022-12-15T03:42:03;-2.40;99.90
25918;DHT22;13899;51.174;4.456;2022-12-15T03:44:28;-2.50;99.90
25918;DHT22;13899;51.174;4.456;2022-12-15T03:46:54;-2.20;99.90
25918;DHT22;13899;51.174;4.456;2022-12-15T03:49:20;-2.10;99.90
25918;DHT22;13899;51.174;4.456;2022-12-15T03:51:45;-2.30;99.90
25918;DHT22;13899;51.174;4.456;2022-12-15T03:54:14;-2.20;99.90
25918;DHT22;13899;51.174;4.456;2022-12-15T03:56:40;-2.10;99.90
25918;DHT22;13899;51.174;4.456;2022-12-15T03:59:05;-2.20;99.90
25918;DHT22;13899;51.174;4.456;2022-12-15T04:01:33;-2.40;99.90
25918;DHT22;13899;51.174;4.456;2022-12-15T04:03:59;-2.10;99.90
25918;DHT22;13899;51.174;4.456;2022-12-15T04:06:26;-1.90;99.90
25918;DHT22;13899;51.174;4.456;2022-12-15T04:08:51;-1.80;99.90
25918;DHT22;13899;51.174;4.456;2022-12-15T04:11:18;-1.80;99.90
25918;DHT22;13899;51.174;4.456;2022-12-15T04:13:44;-1.90;99.90
25918;DHT22;13899;51.174;4.456;2022-12-15T04:16:09;-2.00;99.90
25918;DHT22;13899;51.174;4.456;2022-12-15T04:18:36;-2.10;99.90
25918;DHT22;13899;51.174;4.456;2022-12-15T04:21:02;-2.00;99.90
25918;DHT22;13899;51.174;4.456;2022-12-15T04:23:27;-2.10;99.90
25918;DHT22;13899;51.174;4.456;2022-12-15T04:25:53;-2.00;99.90
25918;DHT22;13899;51.174;4.456;2022-12-15T04:28:37;-2.10;99.90
25918;DHT22;13899;51.174;4.456;2022-12-15T04:31:24;-2.20;99.90
25918;DHT22;13899;51.174;4.456;2022-12-15T04:34:15;-2.10;99.90
25918;DHT22;13899;51.174;4.456;2022-12-15T04:37:00;-2.20;99.90
25918;DHT22;13899;51.174;4.456;2022-12-15T04:39:48;-2.30;99.90
25918;DHT22;13899;51.174;4.456;2022-12-15T04:42:34;-2.00;99.90
25918;DHT22;13899;51.174;4.456;2022-12-15T04:45:21;-2.10;99.90
25918;DHT22;13899;51.174;4.456;2022-12-15T04:48:07;-2.00;99.90
25918;DHT22;13899;51.174;4.456;2022-12-15T04:50:51;-2.40;99.90
25918;DHT22;13899;51.174;4.456;2022-12-15T04:53:35;-2.70;99.90
25918;DHT22;13899;51.174;4.456;2022-12-15T04:56:19;-2.50;99.90
25918;DHT22;13899;51.174;4.456;2022-12-15T04:59:04;-2.30;99.90
25918;DHT22;13899;51.174;4.456;2022-12-15T05:01:48;-2.80;99.90
25918;DHT22;13899;51.174;4.456;2022-12-15T05:04:32;-3.00;99.90
25918;DHT22;13899;51.174;4.456;2022-12-15T05:07:17;-2.70;99.90
25918;DHT22;13899;51.174;4.456;2022-12-15T05:10:03;-2.50;99.90
25918;DHT22;13899;51.174;4.456;2022-12-15T05:12:47;-2.70;99.90
25918;DHT22;13899;51.174;4.456;2022-12-15T05:15:32;-3.00;99.90
25918;DHT22;13899;51.174;4.456;2022-12-15T05:18:16;-2.80;99.90
25918;DHT22;13899;51.174;4.456;2022-12-15T05:21:00;-2.80;99.90
25918;DHT22;13899;51.174;4.456;2022-12-15T05:23:44;-2.60;99.90
25918;DHT22;13899;51.174;4.456;2022-12-15T05:26:28;-3.10;99.90
25918;DHT22;13899;51.174;4.456;2022-12-15T05:29:13;-3.00;99.90
25918;DHT22;13899;51.174;4.456;2022-12-15T05:31:57;-3.00;99.90
25918;DHT22;13899;51.174;4.456;2022-12-15T05:34:33;-2.70;99.90
25918;DHT22;13899;51.174;4.456;2022-12-15T05:37:01;-2.60;99.90
25918;DHT22;13899;51.174;4.456;2022-12-15T05:39:27;-2.80;99.90
25918;DHT22;13899;51.174;4.456;2022-12-15T05:41:54;-3.50;99.90
25918;DHT22;13899;51.174;4.456;2022-12-15T05:44:20;-3.90;99.90
25918;DHT22;13899;51.174;4.456;2022-12-15T05:46:46;-3.90;99.90
25918;DHT22;13899;51.174;4.456;2022-12-15T05:49:14;-4.00;99.90
25918;DHT22;13899;51.174;4.456;2022-12-15T05:51:41;-4.00;99.90
25918;DHT22;13899;51.174;4.456;2022-12-15T05:54:08;-4.30;99.90
25918;DHT22;13899;51.174;4.456;2022-12-15T05:56:34;-4.10;99.90
25918;DHT22;13899;51.174;4.456;2022-12-15T05:59:00;-4.20;99.90
25918;DHT22;13899;51.174;4.456;2022-12-15T06:01:27;-4.10;99.90
25918;DHT22;13899;51.174;4.456;2022-12-15T06:03:53;-3.70;99.90
25918;DHT22;13899;51.174;4.456;2022-12-15T06:06:18;-3.30;99.90
25918;DHT22;13899;51.174;4.456;2022-12-15T06:08:44;-3.40;99.90
25918;DHT22;13899;51.174;4.456;2022-12-15T06:11:14;-3.30;99.90
25918;DHT22;13899;51.174;4.456;2022-12-15T06:13:41;-3.40;99.90
25918;DHT22;13899;51.174;4.456;2022-12-15T06:16:10;-3.40;99.90
25918;DHT22;13899;51.174;4.456;2022-12-15T06:18:39;-3.00;99.90
25918;DHT22;13899;51.174;4.456;2022-12-15T06:21:11;-3.10;99.90
25918;DHT22;13899;51.174;4.456;2022-12-15T06:23:38;-3.30;99.90
25918;DHT22;13899;51.174;4.456;2022-12-15T06:26:12;-3.30;99.90
25918;DHT22;13899;51.174;4.456;2022-12-15T06:28:39;-3.40;99.90
25918;DHT22;13899;51.174;4.456;2022-12-15T06:31:06;-3.50;99.90
25918;DHT22;13899;51.174;4.456;2022-12-15T06:33:32;-3.30;99.90
25918;DHT22;13899;51.174;4.456;2022-12-15T06:36:13;-3.10;99.90
25918;DHT22;13899;51.174;4.456;2022-12-15T06:38:39;-3.40;99.90
25918;DHT22;13899;51.174;4.456;2022-12-15T06:41:08;-3.60;99.90
25918;DHT22;13899;51.174;4.456;2022-12-15T06:43:34;-3.70;99.90
25918;DHT22;13899;51.174;4.456;2022-12-15T06:46:01;-3.80;99.90
25918;DHT22;13899;51.174;4.456;2022-12-15T06:48:26;-3.90;99.90
25918;DHT22;13899;51.174;4.456;2022-12-15T06:50:52;-3.80;99.90
25918;DHT22;13899;51.174;4.456;2022-12-15T06:53:19;-3.50;99.90
25918;DHT22;13899;51.174;4.456;2022-12-15T06:55:45;-3.60;99.90
25918;DHT22;13899;51.174;4.456;2022-12-15T06:58:12;-3.30;99.90
25918;DHT22;13899;51.174;4.456;2022-12-15T07:00:38;-3.00;99.90
25918;DHT22;13899;51.174;4.456;2022-12-15T07:03:06;-2.70;99.90
25918;DHT22;13899;51.174;4.456;2022-12-15T07:05:32;-3.00;99.90
25918;DHT22;13899;51.174;4.456;2022-12-15T07:07:57;-2.90;99.90
25918;DHT22;13899;51.174;4.456;2022-12-15T07:10:23;-2.80;99.90
25918;DHT22;13899;51.174;4.456;2022-12-15T07:12:49;-2.90;99.90
25918;DHT22;13899;51.174;4.456;2022-12-15T07:15:16;-2.80;99.90
25918;DHT22;13899;51.174;4.456;2022-12-15T07:17:41;-2.60;99.90
25918;DHT22;13899;51.174;4.456;2022-12-15T07:20:08;-2.30;99.90
25918;DHT22;13899;51.174;4.456;2022-12-15T07:22:33;-2.30;99.90
25918;DHT22;13899;51.174;4.456;2022-12-15T07:24:59;-2.30;99.90
25918;DHT22;13899;51.174;4.456;2022-12-15T07:27:25;-2.30;99.90
25918;DHT22;13899;51.174;4.456;2022-12-15T07:29:50;-2.30;99.90
25918;DHT22;13899;51.174;4.456;2022-12-15T07:32:17;-2.30;99.90
25918;DHT22;13899;51.174;4.456;2022-12-15T07:34:42;-2.20;99.90
25918;DHT22;13899;51.174;4.456;2022-12-15T07:37:08;-2.40;99.90
25918;DHT22;13899;51.174;4.456;2022-12-15T07:39:33;-2.40;99.90
25918;DHT22;13899;51.174;4.456;2022-12-15T07:41:59;-2.30;99.90
25918;DHT22;13899;51.174;4.456;2022-12-15T07:44:25;-2.40;99.90
25918;DHT22;13899;51.174;4.456;2022-12-15T07:46:50;-2.40;99.90
25918;DHT22;13899;51.174;4.456;2022-12-15T07:49:17;-2.80;99.90
25918;DHT22;13899;51.174;4.456;2022-12-15T07:51:43;-2.90;99.90
25918;DHT22;13899;51.174;4.456;2022-12-15T07:54:10;-2.70;99.90
25918;DHT22;13899;51.174;4.456;2022-12-15T07:56:36;-2.50;99.90
25918;DHT22;13899;51.174;4.456;2022-12-15T07:59:02;-2.50;99.90
25918;DHT22;13899;51.174;4.456;2022-12-15T08:01:27;-2.40;99.90
25918;DHT22;13899;51.174;4.456;2022-12-15T08:03:53;-2.30;99.90
25918;DHT22;13899;51.174;4.456;2022-12-15T08:06:18;-2.30;99.90
25918;DHT22;13899;51.174;4.456;2022-12-15T08:08:44;-2.30;99.90
25918;DHT22;13899;51.174;4.456;2022-12-15T08:11:12;-2.30;99.90
25918;DHT22;13899;51.174;4.456;2022-12-15T08:13:39;-2.60;99.90
25918;DHT22;13899;51.174;4.456;2022-12-15T08:16:05;-2.60;99.90
25918;DHT22;13899;51.174;4.456;2022-12-15T08:18:31;-2.40;99.90
25918;DHT22;13899;51.174;4.456;2022-12-15T08:21:02;-2.20;99.90
25918;DHT22;13899;51.174;4.456;2022-12-15T08:23:28;-2.10;99.90
25918;DHT22;13899;51.174;4.456;2022-12-15T08:25:53;-2.10;99.90
25918;DHT22;13899;51.174;4.456;2022-12-15T08:28:19;-2.00;99.90
25918;DHT22;13899;51.174;4.456;2022-12-15T08:30:45;-1.80;99.90
25918;DHT22;13899;51.174;4.456;2022-12-15T08:33:10;-1.80;99.90
25918;DHT22;13899;51.174;4.456;2022-12-15T08:35:38;-1.90;99.90
25918;DHT22;13899;51.174;4.456;2022-12-15T08:38:04;-1.60;99.90
25918;DHT22;13899;51.174;4.456;2022-12-15T08:40:30;-1.90;99.90
25918;DHT22;13899;51.174;4.456;2022-12-15T08:42:55;-2.20;99.90
25918;DHT22;13899;51.174;4.456;2022-12-15T08:45:21;-2.30;99.90
25918;DHT22;13899;51.174;4.456;2022-12-15T08:47:47;-2.50;99.90
25918;DHT22;13899;51.174;4.456;2022-12-15T08:50:12;-2.40;99.90
25918;DHT22;13899;51.174;4.456;2022-12-15T08:52:38;-2.40;99.90
25918;DHT22;13899;51.174;4.456;2022-12-15T08:55:08;-2.50;99.90
25918;DHT22;13899;51.174;4.456;2022-12-15T08:57:36;-2.60;99.90
25918;DHT22;13899;51.174;4.456;2022-12-15T09:00:03;-2.80;99.90
25918;DHT22;13899;51.174;4.456;2022-12-15T09:02:29;-2.80;99.90
25918;DHT22;13899;51.174;4.456;2022-12-15T09:04:55;-2.60;99.90
25918;DHT22;13899;51.174;4.456;2022-12-15T09:07:20;-2.40;99.90
25918;DHT22;13899;51.174;4.456;2022-12-15T09:09:46;-2.50;99.90
25918;DHT22;13899;51.174;4.456;2022-12-15T09:12:12;-2.60;99.90
25918;DHT22;13899;51.174;4.456;2022-12-15T09:14:37;-2.50;99.90
25918;DHT22;13899;51.174;4.456;2022-12-15T09:17:03;-2.30;99.90
25918;DHT22;13899;51.174;4.456;2022-12-15T09:19:29;-2.30;99.90
25918;DHT22;13899;51.174;4.456;2022-12-15T09:21:54;-2.20;99.90
25918;DHT22;13899;51.174;4.456;2022-12-15T09:24:20;-2.20;99.90
25918;DHT22;13899;51.174;4.456;2022-12-15T09:26:46;-2.00;99.90
25918;DHT22;13899;51.174;4.456;2022-12-15T09:29:11;-2.20;99.90
25918;DHT22;13899;51.174;4.456;2022-12-15T09:31:38;-2.10;99.90
25918;DHT22;13899;51.174;4.456;2022-12-15T09:34:04;-1.60;99.90
25918;DHT22;13899;51.174;4.456;2022-12-15T09:36:30;-0.80;99.90
25918;DHT22;13899;51.174;4.456;2022-12-15T09:38:57;0.00;99.90
25918;DHT22;13899;51.174;4.456;2022-12-15T09:41:31;0.60;99.90
25918;DHT22;13899;51.174;4.456;2022-12-15T09:44:17;1.40;99.90
25918;DHT22;13899;51.174;4.456;2022-12-15T09:47:04;2.40;99.90
25918;DHT22;13899;51.174;4.456;2022-12-15T09:52:25;3.70;99.90
25918;DHT22;13899;51.174;4.456;2022-12-15T09:54:52;4.50;99.90
25918;DHT22;13899;51.174;4.456;2022-12-15T09:57:42;5.30;99.90
25918;DHT22;13899;51.174;4.456;2022-12-15T10:00:24;5.70;99.90
25918;DHT22;13899;51.174;4.456;2022-12-15T10:05:58;6.80;99.90
25918;DHT22;13899;51.174;4.456;2022-12-15T10:08:33;6.90;99.90
25918;DHT22;13899;51.174;4.456;2022-12-15T10:11:10;6.20;99.90
25918;DHT22;13899;51.174;4.456;2022-12-15T10:16:33;4.90;99.90
25918;DHT22;13899;51.174;4.456;2022-12-15T10:21:46;5.40;99.90
25918;DHT22;13899;51.174;4.456;2022-12-15T10:24:18;5.40;99.90
25918;DHT22;13899;51.174;4.456;2022-12-15T10:26:55;4.20;99.90
25918;DHT22;13899;51.174;4.456;2022-12-15T10:29:31;2.60;99.90
25918;DHT22;13899;51.174;4.456;2022-12-15T10:32:15;1.90;99.90
25918;DHT22;13899;51.174;4.456;2022-12-15T10:34:41;1.30;99.90
25918;DHT22;13899;51.174;4.456;2022-12-15T10:37:13;1.10;99.90
25918;DHT22;13899;51.174;4.456;2022-12-15T10:39:42;1.20;99.90
25918;DHT22;13899;51.174;4.456;2022-12-15T10:42:11;1.70;99.90
25918;DHT22;13899;51.174;4.456;2022-12-15T10:44:40;1.40;99.90
25918;DHT22;13899;51.174;4.456;2022-12-15T10:47:25;2.50;99.90
25918;DHT22;13899;51.174;4.456;2022-12-15T10:49:53;1.40;99.90
25918;DHT22;13899;51.174;4.456;2022-12-15T10:52:45;1.20;99.90
25918;DHT22;13899;51.174;4.456;2022-12-15T10:57:58;2.20;99.90
25918;DHT22;13899;51.174;4.456;2022-12-15T11:00:29;2.70;99.90
25918;DHT22;13899;51.174;4.456;2022-12-15T11:02:56;2.50;99.90
25918;DHT22;13899;51.174;4.456;2022-12-15T11:05:22;2.10;99.90
25918;DHT22;13899;51.174;4.456;2022-12-15T11:07:49;3.20;99.90
25918;DHT22;13899;51.174;4.456;2022-12-15T11:13:15;3.70;99.90
25918;DHT22;13899;51.174;4.456;2022-12-15T11:15:49;3.40;99.90
25918;DHT22;13899;51.174;4.456;2022-12-15T11:18:40;4.80;99.90
25918;DHT22;13899;51.174;4.456;2022-12-15T11:21:13;3.40;99.90
25918;DHT22;13899;51.174;4.456;2022-12-15T11:23:56;3.30;99.90
25918;DHT22;13899;51.174;4.456;2022-12-15T11:32:04;6.20;99.90
25918;DHT22;13899;51.174;4.456;2022-12-15T11:34:35;7.30;99.90
25918;DHT22;13899;51.174;4.456;2022-12-15T11:37:37;7.60;99.90
25918;DHT22;13899;51.174;4.456;2022-12-15T11:40:25;8.10;99.90
25918;DHT22;13899;51.174;4.456;2022-12-15T11:48:18;10.80;99.90
25918;DHT22;13899;51.174;4.456;2022-12-15T11:56:51;10.40;99.90
25918;DHT22;13899;51.174;4.456;2022-12-15T12:07:56;11.80;99.90
25918;DHT22;13899;51.174;4.456;2022-12-15T12:10:38;11.70;99.90
25918;DHT22;13899;51.174;4.456;2022-12-15T12:21:33;12.00;99.90
25918;DHT22;13899;51.174;4.456;2022-12-15T12:24:19;11.80;99.90
25918;DHT22;13899;51.174;4.456;2022-12-15T12:26:58;10.90;99.90
25918;DHT22;13899;51.174;4.456;2022-12-15T12:29:37;10.80;99.90
25918;DHT22;13899;51.174;4.456;2022-12-15T12:32:16;11.50;99.90
25918;DHT22;13899;51.174;4.456;2022-12-15T12:37:51;12.30;99.90
25918;DHT22;13899;51.174;4.456;2022-12-15T12:40:25;12.10;99.90
25918;DHT22;13899;51.174;4.456;2022-12-15T12:42:57;11.90;99.90
25918;DHT22;13899;51.174;4.456;2022-12-15T12:45:37;11.70;99.90
25918;DHT22;13899;51.174;4.456;2022-12-15T12:48:21;12.20;99.90
25918;DHT22;13899;51.174;4.456;2022-12-15T12:50:48;12.30;99.90
25918;DHT22;13899;51.174;4.456;2022-12-15T12:53:31;12.50;99.90
25918;DHT22;13899;51.174;4.456;2022-12-15T12:55:57;11.80;99.90
25918;DHT22;13899;51.174;4.456;2022-12-15T12:58:36;10.50;99.90
25918;DHT22;13899;51.174;4.456;2022-12-15T13:01:17;8.90;99.90
25918;DHT22;13899;51.174;4.456;2022-12-15T13:03:44;9.60;99.90
25918;DHT22;13899;51.174;4.456;2022-12-15T13:06:59;10.50;99.90
25918;DHT22;13899;51.174;4.456;2022-12-15T13:14:28;10.80;99.90
25918;DHT22;13899;51.174;4.456;2022-12-15T13:17:37;11.00;99.90
25918;DHT22;13899;51.174;4.456;2022-12-15T13:20:15;11.00;99.90
25918;DHT22;13899;51.174;4.456;2022-12-15T13:22:40;10.70;99.90
25918;DHT22;13899;51.174;4.456;2022-12-15T13:27:55;10.60;99.90
25918;DHT22;13899;51.174;4.456;2022-12-15T13:30:23;10.70;99.90
25918;DHT22;13899;51.174;4.456;2022-12-15T13:33:15;10.90;99.90
25918;DHT22;13899;51.174;4.456;2022-12-15T13:35:43;10.80;99.90
25918;DHT22;13899;51.174;4.456;2022-12-15T13:38:17;11.00;99.90
25918;DHT22;13899;51.174;4.456;2022-12-15T13:45:55;11.40;99.90
25918;DHT22;13899;51.174;4.456;2022-12-15T13:48:44;11.00;99.90
25918;DHT22;13899;51.174;4.456;2022-12-15T13:51:33;11.10;99.90
25918;DHT22;13899;51.174;4.456;2022-12-15T13:54:20;10.90;99.90
25918;DHT22;13899;51.174;4.456;2022-12-15T14:01:53;10.50;99.90
25918;DHT22;13899;51.174;4.456;2022-12-15T14:04:20;10.40;99.90
25918;DHT22;13899;51.174;4.456;2022-12-15T14:09:15;9.70;99.90
25918;DHT22;13899;51.174;4.456;2022-12-15T14:11:44;9.20;99.90
25918;DHT22;13899;51.174;4.456;2022-12-15T14:14:18;8.80;99.90
25918;DHT22;13899;51.174;4.456;2022-12-15T14:16:44;8.40;99.90
25918;DHT22;13899;51.174;4.456;2022-12-15T14:19:14;8.50;99.90
25918;DHT22;13899;51.174;4.456;2022-12-15T14:21:56;8.30;99.90
25918;DHT22;13899;51.174;4.456;2022-12-15T14:24:25;8.30;99.90
25918;DHT22;13899;51.174;4.456;2022-12-15T14:26:51;8.10;99.90
25918;DHT22;13899;51.174;4.456;2022-12-15T14:29:17;8.20;99.90
25918;DHT22;13899;51.174;4.456;2022-12-15T14:31:49;7.80;99.90
25918;DHT22;13899;51.174;4.456;2022-12-15T14:34:31;7.70;99.90
25918;DHT22;13899;51.174;4.456;2022-12-15T14:37:01;7.70;99.90
25918;DHT22;13899;51.174;4.456;2022-12-15T14:41:56;7.40;99.90
25918;DHT22;13899;51.174;4.456;2022-12-15T14:44:43;7.20;99.90
25918;DHT22;13899;51.174;4.456;2022-12-15T14:47:22;7.00;99.90
25918;DHT22;13899;51.174;4.456;2022-12-15T14:49:51;6.80;99.90
25918;DHT22;13899;51.174;4.456;2022-12-15T14:55:00;6.60;99.90
25918;DHT22;13899;51.174;4.456;2022-12-15T14:57:38;6.30;99.90
25918;DHT22;13899;51.174;4.456;2022-12-15T15:03:36;6.20;99.90
25918;DHT22;13899;51.174;4.456;2022-12-15T15:08:34;6.10;99.90
25918;DHT22;13899;51.174;4.456;2022-12-15T15:13:43;5.90;99.90
25918;DHT22;13899;51.174;4.456;2022-12-15T15:16:17;5.90;99.90
25918;DHT22;13899;51.174;4.456;2022-12-15T15:18:47;5.60;99.90
25918;DHT22;13899;51.174;4.456;2022-12-15T15:21:23;5.70;99.90
25918;DHT22;13899;51.174;4.456;2022-12-15T15:24:03;5.60;99.90
25918;DHT22;13899;51.174;4.456;2022-12-15T15:26:30;5.40;99.90
25918;DHT22;13899;51.174;4.456;2022-12-15T15:28:56;5.30;99.90
25918;DHT22;13899;51.174;4.456;2022-12-15T15:33:55;5.30;99.90
25918;DHT22;13899;51.174;4.456;2022-12-15T15:36:28;5.10;99.90
25918;DHT22;13899;51.174;4.456;2022-12-15T15:38:54;4.90;99.90
25918;DHT22;13899;51.174;4.456;2022-12-15T15:41:31;4.80;99.90
25918;DHT22;13899;51.174;4.456;2022-12-15T15:43:58;4.80;99.90
25918;DHT22;13899;51.174;4.456;2022-12-15T15:46:29;4.60;99.90
25918;DHT22;13899;51.174;4.456;2022-12-15T15:49:05;4.50;99.90
25918;DHT22;13899;51.174;4.456;2022-12-15T15:51:32;4.30;99.90
25918;DHT22;13899;51.174;4.456;2022-12-15T15:54:01;4.40;99.90
25918;DHT22;13899;51.174;4.456;2022-12-15T15:56:27;4.20;99.90
25918;DHT22;13899;51.174;4.456;2022-12-15T15:58:55;4.30;99.90
25918;DHT22;13899;51.174;4.456;2022-12-15T16:01:21;4.30;99.90
25918;DHT22;13899;51.174;4.456;2022-12-15T16:03:47;4.10;99.90
25918;DHT22;13899;51.174;4.456;2022-12-15T16:06:16;3.90;99.90
25918;DHT22;13899;51.174;4.456;2022-12-15T16:08:43;3.80;99.90
25918;DHT22;13899;51.174;4.456;2022-12-15T16:11:12;3.80;99.90
25918;DHT22;13899;51.174;4.456;2022-12-15T16:13:38;4.00;99.90
25918;DHT22;13899;51.174;4.456;2022-12-15T16:16:04;3.70;99.90
25918;DHT22;13899;51.174;4.456;2022-12-15T16:18:30;3.80;99.90
25918;DHT22;13899;51.174;4.456;2022-12-15T16:20:57;3.70;99.90
25918;DHT22;13899;51.174;4.456;2022-12-15T16:23:26;3.60;99.90
25918;DHT22;13899;51.174;4.456;2022-12-15T16:25:57;3.80;99.90
25918;DHT22;13899;51.174;4.456;2022-12-15T16:28:30;3.70;99.90
25918;DHT22;13899;51.174;4.456;2022-12-15T16:30:56;3.60;99.90
25918;DHT22;13899;51.174;4.456;2022-12-15T16:33:23;3.50;99.90
25918;DHT22;13899;51.174;4.456;2022-12-15T16:35:49;3.70;99.90
25918;DHT22;13899;51.174;4.456;2022-12-15T16:38:28;3.80;99.90
25918;DHT22;13899;51.174;4.456;2022-12-15T16:40:55;3.60;99.90
25918;DHT22;13899;51.174;4.456;2022-12-15T16:43:22;3.70;99.90
25918;DHT22;13899;51.174;4.456;2022-12-15T16:45:49;3.70;99.90
25918;DHT22;13899;51.174;4.456;2022-12-15T16:48:17;3.60;99.90
25918;DHT22;13899;51.174;4.456;2022-12-15T16:50:47;3.50;99.90
25918;DHT22;13899;51.174;4.456;2022-12-15T16:53:19;3.50;99.90
25918;DHT22;13899;51.174;4.456;2022-12-15T16:55:48;3.30;99.90
25918;DHT22;13899;51.174;4.456;2022-12-15T16:58:44;3.30;99.90
25918;DHT22;13899;51.174;4.456;2022-12-15T17:01:11;3.00;99.90
25918;DHT22;13899;51.174;4.456;2022-12-15T17:03:49;3.00;99.90
25918;DHT22;13899;51.174;4.456;2022-12-15T17:06:15;3.30;99.90
25918;DHT22;13899;51.174;4.456;2022-12-15T17:08:50;3.10;99.90
25918;DHT22;13899;51.174;4.456;2022-12-15T17:11:24;3.20;99.90
25918;DHT22;13899;51.174;4.456;2022-12-15T17:13:52;3.00;99.90
25918;DHT22;13899;51.174;4.456;2022-12-15T17:16:21;3.20;99.90
25918;DHT22;13899;51.174;4.456;2022-12-15T17:18:48;3.10;99.90
25918;DHT22;13899;51.174;4.456;2022-12-15T17:21:14;2.90;99.90
25918;DHT22;13899;51.174;4.456;2022-12-15T17:23:43;3.10;99.90
25918;DHT22;13899;51.174;4.456;2022-12-15T17:26:21;2.90;99.90
25918;DHT22;13899;51.174;4.456;2022-12-15T17:28:48;3.00;99.90
25918;DHT22;13899;51.174;4.456;2022-12-15T17:31:18;3.00;99.90
25918;DHT22;13899;51.174;4.456;2022-12-15T17:33:44;3.00;99.90
25918;DHT22;13899;51.174;4.456;2022-12-15T17:38:44;3.00;99.90
25918;DHT22;13899;51.174;4.456;2022-12-15T17:41:13;3.00;99.90
25918;DHT22;13899;51.174;4.456;2022-12-15T17:43:39;2.90;99.90
25918;DHT22;13899;51.174;4.456;2022-12-15T17:46:06;2.80;99.90
25918;DHT22;13899;51.174;4.456;2022-12-15T17:48:32;2.80;99.90
25918;DHT22;13899;51.174;4.456;2022-12-15T17:50:58;2.70;99.90
25918;DHT22;13899;51.174;4.456;2022-12-15T17:53:24;2.80;99.90
25918;DHT22;13899;51.174;4.456;2022-12-15T17:55:51;2.60;99.90
25918;DHT22;13899;51.174;4.456;2022-12-15T17:58:19;2.80;99.90
25918;DHT22;13899;51.174;4.456;2022-12-15T18:00:47;2.60;99.90
25918;DHT22;13899;51.174;4.456;2022-12-15T18:03:14;2.40;99.90
25918;DHT22;13899;51.174;4.456;2022-12-15T18:05:40;2.50;99.90